sensor_id;sensor_type;location;lat;lon;timestamp;pressure;altitude;pressure_sealevel;temperature;humidity
18918;BME280;9591;52.742;13.650;2024-01-10T00:02:23;103043.66;;;2.17;31.46
18918;BME280;9591;52.742;13.650;2024-01-10T00:05:10;103035.34;;;2.05;32.21
18918;BME280;9591;52.742;13.650;2024-01-10T00:08:06;103031.38;;;2.14;32.03
18918;BME280;9591;52.742;13.650;2024-01-10T00:10:53;103027.69;;;2.09;32.03
18918;BME280;9591;52.742;13.650;2024-01-10T00:13:42;103014.78;;;2.14;31.46
18918;BME280;9591;52.742;13.650;2024-01-10T00:16:33;103010.75;;;2.00;31.86
18918;BME280;9591;52.742;13.650;2024-01-10T00:19:20;103014.66;;;2.33;31.05
18918;BME280;9591;52.742;13.650;2024-01-10T00:22:09;103008.94;;;2.43;31.37
18918;BME280;9591;52.742;13.650;2024-01-10T00:24:56;103003.75;;;2.45;30.85
18918;BME280;9591;52.742;13.650;2024-01-10T00:27:45;102996.78;;;2.21;31.09
18918;BME280;9591;52.742;13.650;2024-01-10T00:30:32;102997.09;;;2.07;31.63
18918;BME280;9591;52.742;13.650;2024-01-10T00:33:22;103002.91;;;2.22;31.28
18918;BME280;9591;52.742;13.650;2024-01-10T00:36:09;102993.75;;;2.11;31.67
18918;BME280;9591;52.742;13.650;2024-01-10T00:38:57;103000.94;;;2.16;31.69
18918;BME280;9591;52.742;13.650;2024-01-10T00:41:43;102995.66;;;2.15;31.77
18918;BME280;9591;52.742;13.650;2024-01-10T00:44:30;102989.97;;;2.03;31.41
18918;BME280;9591;52.742;13.650;2024-01-10T00:47:17;102996.13;;;1.82;31.78
18918;BME280;9591;52.742;13.650;2024-01-10T00:50:09;102994.47;;;1.84;31.73
18918;BME280;9591;52.742;13.650;2024-01-10T00:52:58;102990.91;;;1.82;31.79
18918;BME280;9591;52.742;13.650;2024-01-10T00:55:47;102991.34;;;2.39;31.15
18918;BME280;9591;52.742;13.650;2024-01-10T00:58:35;102985.63;;;2.03;31.56
18918;BME280;9591;52.742;13.650;2024-01-10T01:01:25;102992.69;;;1.83;32.09
18918;BME280;9591;52.742;13.650;2024-01-10T01:04:12;102989.97;;;2.03;31.66
18918;BME280;9591;52.742;13.650;2024-01-10T01:07:03;102985.19;;;1.92;31.85
18918;BME280;9591;52.742;13.650;2024-01-10T01:09:54;102988.81;;;1.96;31.53
18918;BME280;9591;52.742;13.650;2024-01-10T01:12:42;102988.13;;;2.00;31.38
18918;BME280;9591;52.742;13.650;2024-01-10T01:15:29;102984.06;;;2.08;31.34
18918;BME280;9591;52.742;13.650;2024-01-10T01:18:18;102977.66;;;2.00;31.31
18918;BME280;9591;52.742;13.650;2024-01-10T01:21:05;102993.53;;;2.76;30.33
18918;BME280;9591;52.742;13.650;2024-01-10T01:23:55;102984.59;;;2.00;31.31
18918;BME280;9591;52.742;13.650;2024-01-10T01:26:43;102988.81;;;1.96;31.49
18918;BME280;9591;52.742;13.650;2024-01-10T01:29:30;102994.09;;;1.75;31.42
18918;BME280;9591;52.742;13.650;2024-01-10T01:32:17;102983.44;;;1.69;31.73
18918;BME280;9591;52.742;13.650;2024-01-10T01:35:19;102996.00;;;1.79;31.82
18918;BME280;9591;52.742;13.650;2024-01-10T01:38:09;102997.91;;;2.28;30.82
18918;BME280;9591;52.742;13.650;2024-01-10T01:40:58;102993.31;;;2.22;30.75
18918;BME280;9591;52.742;13.650;2024-01-10T01:43:47;102999.69;;;2.29;30.47
18918;BME280;9591;52.742;13.650;2024-01-10T01:46:34;103010.50;;;2.16;31.09
18918;BME280;9591;52.742;13.650;2024-01-10T01:49:28;103010.09;;;2.05;31.36
18918;BME280;9591;52.742;13.650;2024-01-10T01:52:16;102999.94;;;2.60;30.18
18918;BME280;9591;52.742;13.650;2024-01-10T01:55:04;102998.22;;;2.13;31.10
18918;BME280;9591;52.742;13.650;2024-01-10T01:57:58;103002.97;;;2.23;30.81
18918;BME280;9591;52.742;13.650;2024-01-10T02:00:57;102999.44;;;2.71;30.47
18918;BME280;9591;52.742;13.650;2024-01-10T02:03:45;103001.72;;;2.60;29.80
18918;BME280;9591;52.742;13.650;2024-01-10T02:06:34;102999.56;;;2.26;30.36
18918;BME280;9591;52.742;13.650;2024-01-10T02:09:21;102987.28;;;2.47;30.22
18918;BME280;9591;52.742;13.650;2024-01-10T02:12:08;102988.28;;;2.27;30.88
18918;BME280;9591;52.742;13.650;2024-01-10T02:14:57;102990.06;;;2.06;30.67
18918;BME280;9591;52.742;13.650;2024-01-10T02:17:43;102988.34;;;2.06;30.97
18918;BME280;9591;52.742;13.650;2024-01-10T02:20:31;102995.59;;;2.13;30.60
18918;BME280;9591;52.742;13.650;2024-01-10T02:23:18;102992.97;;;2.13;30.38
18918;BME280;9591;52.742;13.650;2024-01-10T02:26:09;102994.34;;;2.04;30.70
18918;BME280;9591;52.742;13.650;2024-01-10T02:28:58;102985.97;;;2.12;31.14
18918;BME280;9591;52.742;13.650;2024-01-10T02:31:45;102981.47;;;2.80;29.80
18918;BME280;9591;52.742;13.650;2024-01-10T02:34:37;102981.38;;;2.29;30.50
18918;BME280;9591;52.742;13.650;2024-01-10T02:37:26;102976.25;;;2.32;30.51
18918;BME280;9591;52.742;13.650;2024-01-10T02:40:15;102979.59;;;2.28;30.58
18918;BME280;9591;52.742;13.650;2024-01-10T02:43:04;102983.94;;;2.27;30.43
18918;BME280;9591;52.742;13.650;2024-01-10T02:46:20;102985.66;;;2.27;30.66
18918;BME280;9591;52.742;13.650;2024-01-10T02:49:16;102973.53;;;2.29;30.44
18918;BME280;9591;52.742;13.650;2024-01-10T02:52:06;102960.41;;;2.27;30.20
18918;BME280;9591;52.742;13.650;2024-01-10T02:54:54;102972.22;;;2.40;30.42
18918;BME280;9591;52.742;13.650;2024-01-10T02:57:42;102978.00;;;2.32;30.36
18918;BME280;9591;52.742;13.650;2024-01-10T03:00:35;102979.06;;;2.86;29.66
18918;BME280;9591;52.742;13.650;2024-01-10T03:03:24;102977.09;;;2.55;30.14
18918;BME280;9591;52.742;13.650;2024-01-10T03:06:12;102972.88;;;2.35;30.38
18918;BME280;9591;52.742;13.650;2024-01-10T03:09:02;102973.03;;;2.39;30.15
18918;BME280;9591;52.742;13.650;2024-01-10T03:11:52;102976.97;;;2.28;30.72
18918;BME280;9591;52.742;13.650;2024-01-10T03:14:39;102964.69;;;2.25;30.55
18918;BME280;9591;52.742;13.650;2024-01-10T03:17:30;102968.63;;;2.14;30.93
18918;BME280;9591;52.742;13.650;2024-01-10T03:20:23;102966.06;;;2.16;30.97
18918;BME280;9591;52.742;13.650;2024-01-10T03:23:10;102964.22;;;2.13;30.82
18918;BME280;9591;52.742;13.650;2024-01-10T03:25:59;102944.03;;;2.33;30.72
18918;BME280;9591;52.742;13.650;2024-01-10T03:28:46;102956.97;;;2.52;30.41
18918;BME280;9591;52.742;13.650;2024-01-10T03:31:34;102952.84;;;2.35;30.57
18918;BME280;9591;52.742;13.650;2024-01-10T03:34:25;102952.38;;;2.47;30.52
18918;BME280;9591;52.742;13.650;2024-01-10T03:37:14;102952.03;;;2.14;31.15
18918;BME280;9591;52.742;13.650;2024-01-10T03:40:01;102953.94;;;2.42;30.67
18918;BME280;9591;52.742;13.650;2024-01-10T03:42:53;102950.94;;;2.31;30.81
18918;BME280;9591;52.742;13.650;2024-01-10T03:45:42;102950.56;;;2.70;30.55
18918;BME280;9591;52.742;13.650;2024-01-10T03:48:29;102942.59;;;2.41;30.33
18918;BME280;9591;52.742;13.650;2024-01-10T03:51:19;102937.91;;;2.33;30.70
18918;BME280;9591;52.742;13.650;2024-01-10T03:54:08;102942.88;;;2.49;30.81
18918;BME280;9591;52.742;13.650;2024-01-10T03:56:55;102933.94;;;2.93;30.18
18918;BME280;9591;52.742;13.650;2024-01-10T03:59:47;102933.19;;;2.46;30.56
18918;BME280;9591;52.742;13.650;2024-01-10T04:02:36;102928.72;;;2.20;30.79
18918;BME280;9591;52.742;13.650;2024-01-10T04:05:39;102930.06;;;2.33;30.47
18918;BME280;9591;52.742;13.650;2024-01-10T04:08:29;102937.25;;;2.14;31.16
18918;BME280;9591;52.742;13.650;2024-01-10T04:11:16;102940.47;;;2.31;30.97
18918;BME280;9591;52.742;13.650;2024-01-10T04:14:06;102936.38;;;2.63;30.23
18918;BME280;9591;52.742;13.650;2024-01-10T04:17:01;102930.19;;;2.59;30.27
18918;BME280;9591;52.742;13.650;2024-01-10T04:19:50;102928.13;;;2.27;30.79
18918;BME280;9591;52.742;13.650;2024-01-10T04:22:39;102922.09;;;2.53;29.97
18918;BME280;9591;52.742;13.650;2024-01-10T04:25:30;102921.59;;;2.16;30.67
18918;BME280;9591;52.742;13.650;2024-01-10T04:28:19;102930.06;;;2.09;30.71
18918;BME280;9591;52.742;13.650;2024-01-10T04:31:06;102933.56;;;2.09;30.87
18918;BME280;9591;52.742;13.650;2024-01-10T04:33:58;102931.72;;;2.07;30.89
18918;BME280;9591;52.742;13.650;2024-01-10T04:36:45;102928.88;;;2.01;30.83
18918;BME280;9591;52.742;13.650;2024-01-10T04:39:34;102924.13;;;2.13;30.55
18918;BME280;9591;52.742;13.650;2024-01-10T04:42:28;102923.13;;;2.33;30.34
18918;BME280;9591;52.742;13.650;2024-01-10T04:45:17;102917.84;;;1.85;30.96
18918;BME280;9591;52.742;13.650;2024-01-10T04:48:07;102927.09;;;1.77;31.25
18918;BME280;9591;52.742;13.650;2024-01-10T04:50:58;102930.47;;;1.73;31.38
18918;BME280;9591;52.742;13.650;2024-01-10T04:53:50;102926.56;;;2.08;30.60
18918;BME280;9591;52.742;13.650;2024-01-10T04:56:39;102922.50;;;2.16;30.56
18918;BME280;9591;52.742;13.650;2024-01-10T04:59:29;102917.97;;;1.88;31.10
18918;BME280;9591;52.742;13.650;2024-01-10T05:02:16;102923.53;;;1.97;30.75
18918;BME280;9591;52.742;13.650;2024-01-10T05:05:04;102921.06;;;1.78;31.31
18918;BME280;9591;52.742;13.650;2024-01-10T05:07:53;102918.38;;;1.77;31.41
18918;BME280;9591;52.742;13.650;2024-01-10T05:10:41;102923.53;;;1.97;30.96
18918;BME280;9591;52.742;13.650;2024-01-10T05:13:29;102912.84;;;1.91;30.78
18918;BME280;9591;52.742;13.650;2024-01-10T05:16:19;102919.84;;;1.92;30.60
18918;BME280;9591;52.742;13.650;2024-01-10T05:19:10;102912.97;;;1.94;30.75
18918;BME280;9591;52.742;13.650;2024-01-10T05:22:02;102919.44;;;2.04;30.33
18918;BME280;9591;52.742;13.650;2024-01-10T05:24:52;102912.16;;;2.43;30.33
18918;BME280;9591;52.742;13.650;2024-01-10T05:27:40;102911.31;;;1.96;30.71
18918;BME280;9591;52.742;13.650;2024-01-10T05:30:27;102912.56;;;1.84;30.50
18918;BME280;9591;52.742;13.650;2024-01-10T05:33:18;102918.97;;;1.92;30.53
18918;BME280;9591;52.742;13.650;2024-01-10T05:36:07;102912.25;;;1.76;30.68
18918;BME280;9591;52.742;13.650;2024-01-10T05:38:56;102907.31;;;1.60;31.01
18918;BME280;9591;52.742;13.650;2024-01-10T05:41:46;102909.63;;;1.98;30.93
18918;BME280;9591;52.742;13.650;2024-01-10T05:44:35;102900.75;;;2.17;30.64
18918;BME280;9591;52.742;13.650;2024-01-10T05:47:22;102899.50;;;1.84;30.51
18918;BME280;9591;52.742;13.650;2024-01-10T05:50:16;102894.59;;;1.69;31.03
18918;BME280;9591;52.742;13.650;2024-01-10T05:53:04;102893.66;;;1.67;31.31
18918;BME280;9591;52.742;13.650;2024-01-10T05:55:52;102893.13;;;2.00;30.85
18918;BME280;9591;52.742;13.650;2024-01-10T05:58:40;102879.66;;;2.13;30.65
18918;BME280;9591;52.742;13.650;2024-01-10T06:01:27;102889.50;;;1.72;30.70
18918;BME280;9591;52.742;13.650;2024-01-10T06:04:16;102890.94;;;1.64;31.41
18918;BME280;9591;52.742;13.650;2024-01-10T06:07:09;102892.16;;;1.97;30.49
18918;BME280;9591;52.742;13.650;2024-01-10T06:09:57;102890.69;;;1.82;30.91
18918;BME280;9591;52.742;13.650;2024-01-10T06:12:46;102884.69;;;1.84;31.19
18918;BME280;9591;52.742;13.650;2024-01-10T06:15:37;102884.81;;;1.87;30.92
18918;BME280;9591;52.742;13.650;2024-01-10T06:18:24;102890.38;;;1.96;30.37
18918;BME280;9591;52.742;13.650;2024-01-10T06:21:11;102894.81;;;1.75;30.83
18918;BME280;9591;52.742;13.650;2024-01-10T06:24:02;102886.44;;;2.08;30.47
18918;BME280;9591;52.742;13.650;2024-01-10T06:26:48;102888.84;;;2.02;30.66
18918;BME280;9591;52.742;13.650;2024-01-10T06:29:41;102890.28;;;1.93;30.46
18918;BME280;9591;52.742;13.650;2024-01-10T06:32:31;102891.59;;;1.82;30.38
18918;BME280;9591;52.742;13.650;2024-01-10T06:35:20;102898.09;;;1.70;30.70
18918;BME280;9591;52.742;13.650;2024-01-10T06:38:07;102890.09;;;1.65;30.88
18918;BME280;9591;52.742;13.650;2024-01-10T06:41:00;102902.44;;;1.69;30.51
18918;BME280;9591;52.742;13.650;2024-01-10T06:43:47;102899.75;;;1.45;31.14
18918;BME280;9591;52.742;13.650;2024-01-10T06:46:36;102895.69;;;1.98;30.37
18918;BME280;9591;52.742;13.650;2024-01-10T06:49:23;102904.81;;;1.63;30.65
18918;BME280;9591;52.742;13.650;2024-01-10T06:52:13;102899.84;;;1.69;30.73
18918;BME280;9591;52.742;13.650;2024-01-10T06:55:10;102900.16;;;1.78;30.44
18918;BME280;9591;52.742;13.650;2024-01-10T06:57:58;102900.16;;;1.78;30.43
18918;BME280;9591;52.742;13.650;2024-01-10T07:00:45;102904.06;;;1.89;30.66
18918;BME280;9591;52.742;13.650;2024-01-10T07:03:32;102904.47;;;1.78;30.25
18918;BME280;9591;52.742;13.650;2024-01-10T07:06:24;102906.22;;;1.77;30.61
18918;BME280;9591;52.742;13.650;2024-01-10T07:09:13;102902.59;;;1.74;30.59
18918;BME280;9591;52.742;13.650;2024-01-10T07:12:08;102901.50;;;1.91;30.46
18918;BME280;9591;52.742;13.650;2024-01-10T07:15:01;102904.09;;;1.67;30.95
18918;BME280;9591;52.742;13.650;2024-01-10T07:18:03;102899.06;;;1.72;31.02
18918;BME280;9591;52.742;13.650;2024-01-10T07:20:58;102899.13;;;1.73;30.67
18918;BME280;9591;52.742;13.650;2024-01-10T07:23:46;102903.63;;;2.49;29.66
18918;BME280;9591;52.742;13.650;2024-01-10T07:26:38;102905.97;;;2.17;29.77
18918;BME280;9591;52.742;13.650;2024-01-10T07:29:25;102906.75;;;2.15;29.69
18918;BME280;9591;52.742;13.650;2024-01-10T07:32:17;102900.41;;;2.08;30.06
18918;BME280;9591;52.742;13.650;2024-01-10T07:35:08;102899.38;;;1.81;30.23
18918;BME280;9591;52.742;13.650;2024-01-10T07:37:57;102899.53;;;2.08;29.86
18918;BME280;9591;52.742;13.650;2024-01-10T07:40:54;102901.88;;;2.24;30.38
18918;BME280;9591;52.742;13.650;2024-01-10T07:43:47;102901.25;;;2.31;29.94
18918;BME280;9591;52.742;13.650;2024-01-10T07:46:34;102913.94;;;2.70;29.34
18918;BME280;9591;52.742;13.650;2024-01-10T07:49:34;102916.56;;;2.44;29.90
18918;BME280;9591;52.742;13.650;2024-01-10T07:52:25;102913.72;;;2.38;30.50
18918;BME280;9591;52.742;13.650;2024-01-10T07:55:13;102913.50;;;2.32;30.62
18918;BME280;9591;52.742;13.650;2024-01-10T07:58:04;102904.31;;;2.43;30.25
18918;BME280;9591;52.742;13.650;2024-01-10T08:00:58;102884.50;;;2.26;30.08
18918;BME280;9591;52.742;13.650;2024-01-10T08:03:46;102924.94;;;2.59;29.86
18918;BME280;9591;52.742;13.650;2024-01-10T08:06:40;102926.41;;;2.51;30.33
18918;BME280;9591;52.742;13.650;2024-01-10T08:09:33;102927.28;;;2.77;30.10
18918;BME280;9591;52.742;13.650;2024-01-10T08:12:27;102930.56;;;2.97;29.69
18918;BME280;9591;52.742;13.650;2024-01-10T08:15:14;102937.84;;;2.80;30.12
18918;BME280;9591;52.742;13.650;2024-01-10T08:18:04;102944.81;;;2.80;30.15
18918;BME280;9591;52.742;13.650;2024-01-10T08:20:53;102933.81;;;2.90;30.02
18918;BME280;9591;52.742;13.650;2024-01-10T08:23:45;102947.28;;;3.01;30.16
18918;BME280;9591;52.742;13.650;2024-01-10T08:26:37;102948.44;;;3.09;29.98
18918;BME280;9591;52.742;13.650;2024-01-10T08:29:25;102946.75;;;3.11;29.89
18918;BME280;9591;52.742;13.650;2024-01-10T08:32:21;102937.34;;;2.90;30.49
18918;BME280;9591;52.742;13.650;2024-01-10T08:35:09;102933.72;;;2.87;30.84
18918;BME280;9591;52.742;13.650;2024-01-10T08:37:57;102934.00;;;3.21;30.04
18918;BME280;9591;52.742;13.650;2024-01-10T08:40:46;102927.69;;;3.42;30.32
18918;BME280;9591;52.742;13.650;2024-01-10T08:43:38;102919.03;;;3.73;29.41
18918;BME280;9591;52.742;13.650;2024-01-10T08:46:30;102922.41;;;3.69;29.52
18918;BME280;9591;52.742;13.650;2024-01-10T08:49:17;102924.22;;;3.71;29.72
18918;BME280;9591;52.742;13.650;2024-01-10T08:52:05;102919.06;;;3.74;29.91
18918;BME280;9591;52.742;13.650;2024-01-10T08:54:53;102909.41;;;4.32;29.72
18918;BME280;9591;52.742;13.650;2024-01-10T08:57:47;102918.34;;;4.40;29.08
18918;BME280;9591;52.742;13.650;2024-01-10T09:00:40;102909.72;;;4.12;29.77
18918;BME280;9591;52.742;13.650;2024-01-10T09:03:31;102924.91;;;4.24;29.85
18918;BME280;9591;52.742;13.650;2024-01-10T09:06:24;102918.00;;;4.59;29.94
18918;BME280;9591;52.742;13.650;2024-01-10T09:09:13;102924.59;;;4.76;29.90
18918;BME280;9591;52.742;13.650;2024-01-10T09:12:09;102907.75;;;4.68;30.69
18918;BME280;9591;52.742;13.650;2024-01-10T09:15:00;102920.63;;;4.59;30.19
18918;BME280;9591;52.742;13.650;2024-01-10T09:17:46;102918.28;;;5.03;29.83
18918;BME280;9591;52.742;13.650;2024-01-10T09:20:43;102916.22;;;4.91;30.03
18918;BME280;9591;52.742;13.650;2024-01-10T09:23:43;102922.28;;;4.88;29.99
18918;BME280;9591;52.742;13.650;2024-01-10T09:26:30;102916.69;;;5.47;29.44
18918;BME280;9591;52.742;13.650;2024-01-10T09:29:23;102920.34;;;5.16;29.91
18918;BME280;9591;52.742;13.650;2024-01-10T09:32:12;102919.19;;;5.41;29.94
18918;BME280;9591;52.742;13.650;2024-01-10T09:34:59;102910.59;;;5.87;29.50
18918;BME280;9591;52.742;13.650;2024-01-10T09:37:46;102913.78;;;5.72;29.59
18918;BME280;9591;52.742;13.650;2024-01-10T09:40:34;102909.94;;;5.96;29.45
18918;BME280;9591;52.742;13.650;2024-01-10T09:43:24;102904.19;;;5.74;29.99
18918;BME280;9591;52.742;13.650;2024-01-10T09:46:18;102905.16;;;5.79;30.00
18918;BME280;9591;52.742;13.650;2024-01-10T09:49:08;102898.63;;;6.00;29.97
18918;BME280;9591;52.742;13.650;2024-01-10T09:51:59;102893.38;;;6.00;30.38
18918;BME280;9591;52.742;13.650;2024-01-10T09:54:53;102885.50;;;5.62;31.00
18918;BME280;9591;52.742;13.650;2024-01-10T09:57:40;102891.66;;;6.02;30.39
18918;BME280;9591;52.742;13.650;2024-01-10T10:00:29;102894.19;;;6.42;29.89
18918;BME280;9591;52.742;13.650;2024-01-10T10:03:19;102893.81;;;6.22;30.52
18918;BME280;9591;52.742;13.650;2024-01-10T10:06:12;102871.78;;;6.64;30.13
18918;BME280;9591;52.742;13.650;2024-01-10T10:09:02;102878.19;;;6.78;29.55
18918;BME280;9591;52.742;13.650;2024-01-10T10:11:55;102867.16;;;7.04;29.59
18918;BME280;9591;52.742;13.650;2024-01-10T10:14:45;102875.16;;;7.08;29.96
18918;BME280;9591;52.742;13.650;2024-01-10T10:17:32;102873.94;;;6.86;29.35
18918;BME280;9591;52.742;13.650;2024-01-10T10:20:24;102880.81;;;7.34;29.50
18918;BME280;9591;52.742;13.650;2024-01-10T10:23:14;102879.72;;;6.66;29.11
18918;BME280;9591;52.742;13.650;2024-01-10T10:26:15;102876.78;;;6.50;29.35
18918;BME280;9591;52.742;13.650;2024-01-10T10:29:10;102871.56;;;6.52;29.51
18918;BME280;9591;52.742;13.650;2024-01-10T10:32:00;102871.41;;;6.93;28.35
18918;BME280;9591;52.742;13.650;2024-01-10T10:34:50;102873.75;;;7.32;28.68
18918;BME280;9591;52.742;13.650;2024-01-10T10:37:39;102878.78;;;7.75;28.67
18918;BME280;9591;52.742;13.650;2024-01-10T10:40:30;102879.91;;;7.97;28.59
18918;BME280;9591;52.742;13.650;2024-01-10T10:43:19;102874.56;;;7.91;28.19
18918;BME280;9591;52.742;13.650;2024-01-10T10:46:07;102873.88;;;8.07;28.43
18918;BME280;9591;52.742;13.650;2024-01-10T10:48:59;102880.81;;;7.98;28.39
18918;BME280;9591;52.742;13.650;2024-01-10T10:51:47;102885.03;;;7.21;28.71
18918;BME280;9591;52.742;13.650;2024-01-10T10:54:38;102883.03;;;7.64;27.83
18918;BME280;9591;52.742;13.650;2024-01-10T10:57:34;102883.63;;;8.13;27.36
18918;BME280;9591;52.742;13.650;2024-01-10T11:00:29;102877.47;;;8.14;25.91
18918;BME280;9591;52.742;13.650;2024-01-10T11:03:18;102881.22;;;9.28;26.67
18918;BME280;9591;52.742;13.650;2024-01-10T11:06:07;102869.97;;;9.67;25.61
18918;BME280;9591;52.742;13.650;2024-01-10T11:09:05;102870.06;;;9.85;24.77
18918;BME280;9591;52.742;13.650;2024-01-10T11:12:13;102866.72;;;10.26;25.14
18918;BME280;9591;52.742;13.650;2024-01-10T11:15:24;102853.47;;;11.37;24.20
18918;BME280;9591;52.742;13.650;2024-01-10T11:18:36;102862.38;;;10.69;23.97
18918;BME280;9591;52.742;13.650;2024-01-10T11:21:46;102853.53;;;11.11;23.83
18918;BME280;9591;52.742;13.650;2024-01-10T11:24:49;102857.09;;;10.92;24.60
18918;BME280;9591;52.742;13.650;2024-01-10T11:27:37;102854.41;;;10.49;25.56
18918;BME280;9591;52.742;13.650;2024-01-10T11:30:34;102850.84;;;10.47;25.87
18918;BME280;9591;52.742;13.650;2024-01-10T11:33:32;102841.94;;;10.15;26.04
18918;BME280;9591;52.742;13.650;2024-01-10T11:36:20;102846.44;;;10.33;26.08
18918;BME280;9591;52.742;13.650;2024-01-10T11:39:10;102792.47;;;9.96;26.82
18918;BME280;9591;52.742;13.650;2024-01-10T11:42:21;102841.06;;;10.10;26.86
18918;BME280;9591;52.742;13.650;2024-01-10T11:45:08;102839.31;;;10.16;26.89
18918;BME280;9591;52.742;13.650;2024-01-10T11:48:01;102836.56;;;9.89;27.95
18918;BME280;9591;52.742;13.650;2024-01-10T11:50:48;102840.97;;;9.89;28.07
18918;BME280;9591;52.742;13.650;2024-01-10T11:53:40;102838.16;;;9.47;26.96
18918;BME280;9591;52.742;13.650;2024-01-10T11:56:37;102826.81;;;9.79;26.31
18918;BME280;9591;52.742;13.650;2024-01-10T11:59:29;102827.69;;;9.76;26.64
18918;BME280;9591;52.742;13.650;2024-01-10T12:02:43;102825.81;;;9.48;28.22
18918;BME280;9591;52.742;13.650;2024-01-10T12:05:36;102814.56;;;10.05;27.11
18918;BME280;9591;52.742;13.650;2024-01-10T12:08:25;102810.81;;;9.48;28.17
18918;BME280;9591;52.742;13.650;2024-01-10T12:11:14;102807.44;;;9.84;28.01
18918;BME280;9591;52.742;13.650;2024-01-10T12:14:11;102807.53;;;10.16;27.25
18918;BME280;9591;52.742;13.650;2024-01-10T12:17:00;102809.25;;;10.05;27.85
18918;BME280;9591;52.742;13.650;2024-01-10T12:19:50;102798.63;;;9.89;28.10
18918;BME280;9591;52.742;13.650;2024-01-10T12:22:43;102808.22;;;9.64;28.31
18918;BME280;9591;52.742;13.650;2024-01-10T12:25:36;102809.19;;;9.81;28.09
18918;BME280;9591;52.742;13.650;2024-01-10T12:28:23;102805.53;;;9.56;28.62
18918;BME280;9591;52.742;13.650;2024-01-10T12:31:13;102800.22;;;9.45;28.69
18918;BME280;9591;52.742;13.650;2024-01-10T12:34:03;102800.22;;;9.45;28.79
18918;BME280;9591;52.742;13.650;2024-01-10T12:36:55;102802.16;;;9.92;28.34
18918;BME280;9591;52.742;13.650;2024-01-10T12:39:43;102801.38;;;10.21;27.72
18918;BME280;9591;52.742;13.650;2024-01-10T12:42:31;102787.28;;;10.28;27.36
18918;BME280;9591;52.742;13.650;2024-01-10T12:45:26;102795.22;;;10.34;27.20
18918;BME280;9591;52.742;13.650;2024-01-10T12:48:14;102783.59;;;9.81;28.27
18918;BME280;9591;52.742;13.650;2024-01-10T12:51:12;102775.81;;;10.33;27.83
18918;BME280;9591;52.742;13.650;2024-01-10T12:54:11;102780.03;;;9.76;28.07
18918;BME280;9591;52.742;13.650;2024-01-10T12:57:03;102778.44;;;10.21;27.47
18918;BME280;9591;52.742;13.650;2024-01-10T12:59:52;102774.03;;;10.26;27.07
18918;BME280;9591;52.742;13.650;2024-01-10T13:02:42;102770.44;;;10.15;27.09
18918;BME280;9591;52.742;13.650;2024-01-10T13:05:31;102769.56;;;10.19;27.86
18918;BME280;9591;52.742;13.650;2024-01-10T13:08:18;102766.88;;;9.99;27.88
18918;BME280;9591;52.742;13.650;2024-01-10T13:11:09;102761.59;;;9.99;28.09
18918;BME280;9591;52.742;13.650;2024-01-10T13:14:02;102765.03;;;9.74;27.22
18918;BME280;9591;52.742;13.650;2024-01-10T13:16:55;102768.66;;;10.02;28.02
18918;BME280;9591;52.742;13.650;2024-01-10T13:19:47;102762.50;;;10.18;27.48
18918;BME280;9591;52.742;13.650;2024-01-10T13:22:39;102766.88;;;9.99;27.87
18918;BME280;9591;52.742;13.650;2024-01-10T13:25:26;102760.69;;;9.93;27.52
18918;BME280;9591;52.742;13.650;2024-01-10T13:28:13;102767.78;;;10.03;26.45
18918;BME280;9591;52.742;13.650;2024-01-10T13:31:10;102760.81;;;10.35;26.49
18918;BME280;9591;52.742;13.650;2024-01-10T13:33:57;102771.38;;;10.52;25.62
18918;BME280;9591;52.742;13.650;2024-01-10T13:36:46;102766.06;;;10.47;26.08
18918;BME280;9591;52.742;13.650;2024-01-10T13:39:36;102759.00;;;10.49;26.32
18918;BME280;9591;52.742;13.650;2024-01-10T13:42:23;102751.94;;;10.42;26.52
18918;BME280;9591;52.742;13.650;2024-01-10T13:45:14;102752.84;;;10.34;26.42
18918;BME280;9591;52.742;13.650;2024-01-10T13:48:09;102749.19;;;9.77;27.26
18918;BME280;9591;52.742;13.650;2024-01-10T13:50:58;102752.75;;;10.00;27.38
18918;BME280;9591;52.742;13.650;2024-01-10T13:53:48;102758.03;;;9.96;27.47
18918;BME280;9591;52.742;13.650;2024-01-10T13:56:35;102758.94;;;9.98;27.18
18918;BME280;9591;52.742;13.650;2024-01-10T13:59:28;102764.25;;;10.04;26.65
18918;BME280;9591;52.742;13.650;2024-01-10T14:02:19;102755.28;;;9.58;27.54
18918;BME280;9591;52.742;13.650;2024-01-10T14:05:12;102745.66;;;9.76;27.31
18918;BME280;9591;52.742;13.650;2024-01-10T14:08:44;102749.09;;;9.51;27.45
18918;BME280;9591;52.742;13.650;2024-01-10T14:11:37;102742.94;;;9.49;27.08
18918;BME280;9591;52.742;13.650;2024-01-10T14:14:26;102754.50;;;9.91;26.89
18918;BME280;9591;52.742;13.650;2024-01-10T14:17:13;102752.63;;;9.48;27.69
18918;BME280;9591;52.742;13.650;2024-01-10T14:20:00;102743.72;;;9.30;27.55
18918;BME280;9591;52.742;13.650;2024-01-10T14:22:55;102732.25;;;9.26;27.74
18918;BME280;9591;52.742;13.650;2024-01-10T14:25:42;102749.72;;;8.98;27.75
18918;BME280;9591;52.742;13.650;2024-01-10T14:28:30;102739.31;;;9.29;27.75
18918;BME280;9591;52.742;13.650;2024-01-10T14:31:18;102734.78;;;9.06;27.67
18918;BME280;9591;52.742;13.650;2024-01-10T14:34:22;102736.47;;;8.92;28.17
18918;BME280;9591;52.742;13.650;2024-01-10T14:37:09;102739.78;;;8.62;28.69
18918;BME280;9591;52.742;13.650;2024-01-10T14:40:00;102750.38;;;8.70;28.45
18918;BME280;9591;52.742;13.650;2024-01-10T14:42:47;102749.50;;;8.65;28.60
18918;BME280;9591;52.742;13.650;2024-01-10T14:45:36;102751.25;;;8.69;28.72
18918;BME280;9591;52.742;13.650;2024-01-10T14:48:24;102752.16;;;8.69;29.01
18918;BME280;9591;52.742;13.650;2024-01-10T14:51:12;102747.81;;;8.79;28.50
18918;BME280;9591;52.742;13.650;2024-01-10T14:53:59;102758.41;;;8.83;29.02
18918;BME280;9591;52.742;13.650;2024-01-10T14:56:52;102759.31;;;8.85;28.16
18918;BME280;9591;52.742;13.650;2024-01-10T14:59:44;102760.09;;;8.71;28.59
18918;BME280;9591;52.742;13.650;2024-01-10T15:02:33;102767.22;;;8.84;28.27
18918;BME280;9591;52.742;13.650;2024-01-10T15:05:28;102763.78;;;8.94;28.18